Tucumcari ASC Data

Date Time Air Temperature Relative Humidity Dewpoint Windchill Heat Index Wind Speed Wind Dir. Rain Solar Radiation Soil Temperature
2m 2m 3m 3m 10cm
US/Mountain F % F F F MPH deg in MJ/m^2 F
max avg avg
2021-05-04 00:05:00 46.7 77.4 40.0 43.3 46.7 6.7 14.0 8.7 58.8 30.4 0.00 0.0000000 53.9
2021-05-04 00:10:00 46.8 77.4 40.1 42.0 46.8 9.9 11.3 9.4 10.8 27.3 0.00 0.0000000 53.9
2021-05-04 00:15:00 46.8 78.0 40.3 43.2 46.8 7.2 11.9 8.5 4.7 29.1 0.00 0.0000000 53.8
2021-05-04 00:20:00 46.7 78.3 40.3 41.6 46.7 10.8 11.3 7.8 5.8 29.9 0.00 0.0000000 53.8
2021-05-04 00:25:00 46.7 78.3 40.3 42.0 46.7 9.7 12.4 8.1 18.6 31.5 0.00 0.0000000 53.8
2021-05-04 00:30:00 46.6 77.9 40.0 42.8 46.6 7.4 12.4 8.8 13.4 32.8 0.00 0.0000000 53.7
2021-05-04 00:35:00 46.6 78.3 40.2 43.0 46.6 7.1 12.4 8.4 10.6 24.9 0.00 0.0000000 53.7
2021-05-04 00:40:00 46.6 79.0 40.4 42.2 46.6 9.0 10.1 7.2 13.7 26.9 0.00 0.0000000 53.7
2021-05-04 00:45:00 46.6 79.5 40.6 43.3 46.6 6.5 10.5 6.6 16.7 25.7 0.00 0.0000000 53.6
2021-05-04 00:50:00 46.5 77.2 39.8 43.3 46.5 6.3 11.9 7.4 15.2 23.0 0.00 0.0000000 53.6
2021-05-04 00:55:00 46.6 77.0 39.8 41.9 46.6 9.7 14.0 8.9 37.3 22.4 0.00 0.0000000 53.6
2021-05-04 01:00:00 46.5 76.4 39.4 40.6 46.5 13.0 13.0 9.4 16.6 19.9 0.00 0.0000000 53.6
2021-05-04 01:05:00 46.3 77.0 39.5 41.2 46.3 10.8 13.1 9.8 0.4 14.0 0.00 0.0000000 53.5
2021-05-04 01:10:00 46.3 77.5 39.7 42.9 46.3 6.7 13.5 9.0 24.6 14.0 0.00 0.0000000 53.5
2021-05-04 01:15:00 46.2 77.8 39.7 42.3 46.2 7.6 11.9 8.5 12.4 15.8 0.00 0.0000000 53.5
2021-05-04 01:20:00 46.2 75.4 38.8 41.6 46.2 9.2 14.0 10.7 10.5 16.1 0.00 0.0000000 53.5
2021-05-04 01:25:00 46.2 77.2 39.5 41.5 46.2 9.6 14.4 8.8 18.2 19.1 0.00 0.0000000 53.4
2021-05-04 01:30:00 46.1 75.8 38.9 39.9 46.1 14.0 15.3 9.8 55.1 29.6 0.00 0.0000000 53.4
2021-05-04 01:35:00 46.1 76.9 39.2 42.2 46.1 7.4 13.0 9.0 13.2 26.4 0.00 0.0000000 53.3
2021-05-04 01:40:00 46.1 77.2 39.3 43.6 46.1 4.9 10.3 6.7 24.6 20.5 0.00 0.0000000 53.3
2021-05-04 01:45:00 46.0 76.1 38.8 42.3 46.0 7.1 11.7 8.5 14.1 19.3 0.00 0.0000000 53.3
2021-05-04 01:50:00 45.8 76.0 38.7 42.2 45.8 6.9 10.8 8.0 15.4 24.4 0.00 0.0000000 53.2
2021-05-04 01:55:00 45.8 76.9 39.0 42.8 45.8 5.8 9.0 6.8 3.9 12.1 0.00 0.0000000 53.2
2021-05-04 02:00:00 45.7 76.9 38.9 41.9 45.7 7.2 10.8 7.8 47.3 16.5 0.00 0.0000000 53.1
2021-05-04 02:05:00 45.7 76.5 38.8 42.4 45.7 6.2 12.1 7.9 11.3 18.1 0.00 0.0000000 53.1
2021-05-04 02:10:00 45.7 76.9 38.9 41.3 45.7 8.5 9.2 6.9 2.4 14.8 0.00 0.0000000 53.1
2021-05-04 02:15:00 45.7 75.8 38.5 41.7 45.7 7.6 10.3 7.6 30.9 27.3 0.00 0.0000000 53.0
2021-05-04 02:20:00 45.7 77.2 39.0 43.5 45.7 4.6 10.8 7.1 19.6 29.4 0.00 0.0000000 53.0
2021-05-04 02:25:00 45.7 77.1 38.9 42.3 45.7 6.3 9.4 6.8 16.9 17.5 0.00 0.0000000 53.0
2021-05-04 02:30:00 45.7 77.9 39.2 41.5 45.7 8.1 9.0 6.5 16.5 7.8 0.00 0.0000000 52.9
2021-05-04 02:35:00 45.6 77.8 39.1 43.2 45.6 4.7 9.6 6.9 352.5 6.9 0.00 0.0000000 52.9
2021-05-04 02:40:00 45.7 76.0 38.6 42.0 45.7 7.1 9.0 6.5 344.2 12.2 0.00 0.0000000 52.9
2021-05-04 02:45:00 45.7 77.1 38.9 43.7 45.7 4.2 10.5 6.3 8.9 6.9 0.00 0.0000000 52.8
2021-05-04 02:50:00 45.7 77.3 39.0 43.1 45.7 5.1 7.1 5.3 16.2 355.7 0.00 0.0000000 52.8
2021-05-04 02:55:00 45.6 78.1 39.2 43.7 45.6 4.0 7.2 5.4 333.0 347.8 0.00 0.0000000 52.8
2021-05-04 03:00:00 45.6 77.7 39.0 41.7 45.6 7.2 9.2 6.1 345.6 348.0 0.00 0.0000000 52.8
2021-05-04 03:05:00 45.6 79.2 39.5 42.9 45.6 5.1 8.8 5.1 343.1 341.2 0.00 0.0000000 52.7
2021-05-04 03:10:00 45.5 78.4 39.2 42.3 45.5 6.0 7.8 5.8 342.9 339.2 0.00 0.0000000 52.7
2021-05-04 03:15:00 45.6 77.8 39.1 42.3 45.6 6.2 9.6 5.4 342.7 344.1 0.00 0.0000000 52.7
2021-05-04 03:20:00 45.5 77.0 38.8 44.1 45.5 3.5 8.0 5.3 13.7 349.5 0.00 0.0000000 52.6
2021-05-04 03:25:00 45.5 77.1 38.7 43.9 45.5 3.7 6.0 4.5 341.1 352.9 0.00 0.0000000 52.6
2021-05-04 03:30:00 45.5 76.3 38.4 42.3 45.5 6.0 6.5 5.0 0.9 353.2 0.00 0.0000000 52.6
2021-05-04 03:35:00 45.5 77.8 38.9 45.5 45.5 3.0 4.9 3.3 6.1 343.9 0.00 0.0000000 52.6
2021-05-04 03:40:00 45.4 77.5 38.7 45.4 45.4 2.2 5.1 3.7 335.4 351.5 0.00 0.0000000 52.6
2021-05-04 03:45:00 45.5 77.6 38.9 43.8 45.5 3.8 5.3 3.8 2.5 352.3 0.00 0.0000000 52.5
2021-05-04 03:50:00 45.5 78.0 39.0 41.9 45.5 6.7 6.7 4.2 345.9 345.9 0.00 0.0000000 52.5
2021-05-04 03:55:00 45.4 78.7 39.1 45.4 45.4 2.8 7.4 4.5 0.0 352.7 0.00 0.0000000 52.5
2021-05-04 04:00:00 45.1 78.4 38.8 42.9 45.1 4.4 6.0 4.4 10.5 354.0 0.00 0.0000000 52.5
2021-05-04 04:05:00 44.9 78.6 38.6 41.6 44.9 5.8 6.7 4.6 4.8 353.1 0.00 0.0000000 52.4
2021-05-04 04:10:00 44.7 77.4 38.1 42.2 44.7 4.7 7.2 4.9 6.9 352.7 0.00 0.0000000 52.4
2021-05-04 04:15:00 44.6 78.3 38.3 42.5 44.6 4.2 7.2 5.2 348.0 12.3 0.00 0.0000000 52.3
2021-05-04 04:20:00 44.5 78.3 38.2 42.6 44.5 3.8 6.3 4.7 3.0 2.2 0.00 0.0000000 52.3
2021-05-04 04:25:00 44.4 78.4 38.1 42.7 44.4 3.7 5.6 3.8 2.9 352.6 0.00 0.0000000 52.2
2021-05-04 04:30:00 44.4 78.3 38.1 41.4 44.4 5.3 6.3 4.4 0.0 355.1 0.00 0.0000000 52.1
2021-05-04 04:35:00 44.4 78.8 38.2 41.9 44.4 4.6 5.6 4.3 347.4 354.8 0.00 0.0000000 52.1
2021-05-04 04:40:00 44.1 79.2 38.0 41.3 44.1 4.9 6.7 4.4 327.8 350.6 0.00 0.0000000 52.0
2021-05-04 04:45:00 44.0 79.0 37.9 41.4 44.0 4.6 6.7 4.8 352.4 351.2 0.00 0.0000000 51.9
2021-05-04 04:50:00 43.8 79.6 37.9 42.0 43.8 3.7 5.3 4.0 333.7 349.6 0.00 0.0000000 51.9
2021-05-04 04:55:00 43.8 79.4 37.8 42.5 43.8 3.1 6.0 3.7 253.0 353.1 0.00 0.0000000 51.8
2021-05-04 05:00:00 43.6 80.2 37.9 40.8 43.6 4.9 4.9 3.5 14.5 355.8 0.00 0.0000000 51.7
2021-05-04 05:05:00 43.4 80.7 37.9 41.7 43.4 3.5 5.1 3.2 0.8 353.8 0.00 0.0000000 51.7
2021-05-04 05:10:00 43.3 81.5 38.0 41.7 43.3 3.3 4.4 2.6 329.6 354.4 0.00 0.0000000 51.6
2021-05-04 05:15:00 43.3 82.1 38.2 43.3 43.3 2.6 4.4 3.2 352.4 343.5 0.00 0.0000000 51.5
2021-05-04 05:20:00 43.3 82.2 38.2 41.7 43.3 3.3 4.2 2.9 25.9 0.1 0.00 0.0000000 51.5
2021-05-04 05:25:00 43.2 82.8 38.3 43.2 43.2 3.0 4.0 2.9 41.3 33.8 0.00 0.0000000 51.4
2021-05-04 05:30:00 43.0 83.6 38.4 41.3 43.0 3.5 4.4 3.4 32.0 30.1 0.00 0.0000000 51.4
2021-05-04 05:35:00 43.0 83.2 38.3 43.0 43.0 3.0 4.9 4.0 48.2 21.1 0.00 0.0000000 51.3
2021-05-04 05:40:00 43.2 82.5 38.2 40.4 43.2 4.7 5.3 3.8 1.7 18.8 0.00 0.0000000 51.3
2021-05-04 05:45:00 43.2 81.9 38.0 41.8 43.2 3.1 5.1 4.0 351.0 4.9 0.00 0.0000000 51.2
2021-05-04 05:50:00 43.0 82.3 38.0 43.0 43.0 2.6 3.8 2.9 342.8 344.6 0.00 0.0000000 51.2
2021-05-04 05:55:00 42.9 83.0 38.1 41.5 42.9 3.1 4.6 3.1 334.8 332.8 0.00 0.0000000 51.1
2021-05-04 06:00:00 42.4 85.2 38.3 40.9 42.4 3.1 3.7 3.1 321.2 323.3 0.00 0.0000000 51.0
2021-05-04 06:05:00 42.0 86.5 38.2 40.1 42.0 3.5 3.7 3.0 334.1 326.0 0.00 0.0002815 51.0
2021-05-04 06:10:00 41.9 86.4 38.2 40.2 41.9 3.3 4.0 3.6 333.1 331.6 0.00 0.0014455 50.9
2021-05-04 06:15:00 41.9 86.0 38.0 39.7 41.9 3.8 4.7 3.9 322.2 330.8 0.00 0.0046701 50.8
2021-05-04 06:20:00 42.1 85.4 38.0 39.3 42.1 4.6 4.7 4.3 323.2 332.6 0.00 0.0099472 50.8
2021-05-04 06:25:00 42.4 85.7 38.4 39.6 42.4 4.6 5.3 4.4 316.8 326.3 0.00 0.0171778 50.7
2021-05-04 06:30:00 42.8 85.4 38.7 39.5 42.8 5.3 5.8 4.5 325.4 320.9 0.00 0.0214230 50.6
2021-05-04 06:35:00 42.9 85.1 38.8 39.8 42.9 5.1 6.5 5.2 323.7 316.9 0.00 0.0255584 50.6
2021-05-04 06:40:00 43.2 83.6 38.6 40.4 43.2 4.7 6.7 5.2 307.9 325.6 0.00 0.0298480 50.6
2021-05-04 06:45:00 43.4 82.0 38.3 40.0 43.4 5.6 6.9 5.4 317.2 322.7 0.00 0.0344840 50.5
2021-05-04 06:50:00 43.8 80.9 38.3 40.6 43.8 5.5 6.2 4.7 325.8 324.7 0.00 0.0391579 50.5
2021-05-04 06:55:00 44.3 79.2 38.2 42.1 44.3 4.2 5.6 4.2 327.5 338.1 0.00 0.0435104 50.5
2021-05-04 07:00:00 44.8 78.6 38.5 42.1 44.8 4.9 5.6 4.3 341.3 341.5 0.00 0.0483404 50.5
2021-05-04 07:05:00 45.1 77.0 38.3 43.7 45.1 3.5 6.5 4.6 352.0 354.3 0.00 0.0527060 50.5
2021-05-04 07:10:00 45.4 75.5 38.1 43.3 45.4 4.4 6.2 4.6 335.7 335.8 0.00 0.0580980 50.5
2021-05-04 07:15:00 45.9 74.2 38.2 44.0 45.9 4.2 6.2 4.5 0.3 340.5 0.00 0.0631365 50.5
2021-05-04 07:20:00 46.2 72.7 38.0 43.5 46.2 5.5 5.8 4.3 352.8 337.6 0.00 0.0677678 50.6
2021-05-04 07:25:00 46.6 70.9 37.7 45.5 46.6 3.3 6.3 4.5 12.0 345.3 0.00 0.0727684 50.6
2021-05-04 07:30:00 47.0 69.3 37.4 44.6 47.0 5.1 6.7 4.7 313.6 347.9 0.00 0.0776694 50.7
2021-05-04 07:35:00 47.3 67.5 37.1 44.2 47.3 6.3 7.1 4.6 16.6 342.1 0.00 0.0825491 50.8
2021-05-04 07:40:00 47.2 67.2 36.9 44.3 47.2 6.0 6.5 5.0 337.2 334.6 0.00 0.0873025 50.9
2021-05-04 07:45:00 48.1 66.0 37.3 45.2 48.1 6.3 6.7 4.7 24.7 0.3 0.00 0.0916995 51.0
2021-05-04 07:50:00 48.4 65.3 37.2 44.4 48.4 8.8 8.8 5.4 338.9 357.2 0.00 0.0978444 51.2
2021-05-04 07:55:00 48.7 65.1 37.5 46.5 48.7 5.3 7.8 5.4 347.7 11.2 0.00 0.1038436 51.3
2021-05-04 08:00:00 49.0 63.8 37.3 47.5 49.0 4.4 7.6 5.3 11.7 5.8 0.00 0.1094045 51.5
2021-05-04 08:05:00 49.2 64.3 37.6 46.4 49.2 6.5 8.3 6.4 17.1 13.5 0.00 0.1156107 51.6
2021-05-04 08:10:00 49.2 61.2 36.4 46.2 49.2 6.9 9.7 6.7 35.9 18.3 0.00 0.1187550 51.8
2021-05-04 08:15:00 48.6 63.7 36.8 46.3 48.6 5.5 8.7 5.7 4.7 16.4 0.00 0.0572579 51.9
2021-05-04 08:20:00 48.7 62.7 36.5 44.7 48.7 9.2 11.2 5.8 4.0 28.5 0.00 0.0794804 52.1
2021-05-04 08:25:00 50.0 60.7 37.0 50.0 50.0 4.6 9.7 5.5 3.5 21.2 0.00 0.1642452 52.3
2021-05-04 08:30:00 50.1 58.0 35.9 50.1 50.1 5.1 9.4 6.5 53.1 49.7 0.00 0.1485979 52.4
2021-05-04 08:35:00 50.4 58.5 36.4 50.4 50.4 8.7 8.7 5.9 62.7 49.4 0.00 0.1649262 52.6
2021-05-04 08:40:00 50.6 55.7 35.3 50.6 50.6 7.6 9.9 5.9 22.8 47.1 0.00 0.1623114 52.9
2021-05-04 08:45:00 50.5 56.5 35.6 50.5 50.5 5.6 9.0 6.1 65.0 45.0 0.00 0.1377906 53.1
2021-05-04 08:50:00 50.1 59.0 36.3 50.1 50.1 6.5 10.8 5.7 52.9 38.3 0.00 0.1377893 53.4
2021-05-04 08:55:00 50.5 55.9 35.4 50.5 50.5 6.3 9.7 7.0 65.4 58.5 0.00 0.1915108 53.7
2021-05-04 09:00:00 50.9 56.3 35.9 50.9 50.9 5.1 7.6 5.1 50.4 64.0 0.00 0.1567395 54.0
2021-05-04 09:05:00 50.4 58.7 36.5 50.4 50.4 6.0 9.6 6.3 70.4 60.4 0.00 0.1424884 54.2
2021-05-04 09:10:00 50.9 56.7 36.1 50.9 50.9 6.5 8.3 6.7 49.3 54.5 0.00 0.2055568 54.5
2021-05-04 09:15:00 51.2 57.4 36.6 51.2 51.2 7.2 7.2 5.6 65.1 46.4 0.00 0.2120666 54.8
2021-05-04 09:20:00 51.0 57.2 36.4 51.0 51.0 6.2 10.1 7.2 132.7 86.7 0.00 0.2052885 55.1
2021-05-04 09:25:00 50.8 59.1 37.1 50.8 50.8 3.7 7.8 4.9 59.1 65.6 0.00 0.1311949 55.4
2021-05-04 09:30:00 50.1 59.0 36.4 50.1 50.1 4.6 8.0 5.3 46.1 37.4 0.00 0.0835718 55.7
2021-05-04 09:35:00 51.3 58.8 37.4 51.3 51.3 5.5 6.9 4.6 60.4 39.0 0.00 0.1844037 56.0
2021-05-04 09:40:00 50.5 59.9 37.1 50.5 50.5 4.2 7.2 5.3 43.4 38.4 0.00 0.0871867 56.2
2021-05-04 09:45:00 51.5 61.7 38.7 51.5 51.5 6.3 8.3 5.8 49.2 45.4 0.00 0.2501231 56.4
2021-05-04 09:50:00 52.1 56.2 37.0 52.1 52.1 8.7 9.2 6.3 6.2 57.8 0.00 0.2538521 56.6
2021-05-04 09:55:00 51.9 53.6 35.6 51.9 51.9 6.2 9.9 6.9 27.2 17.5 0.00 0.1989686 56.9
2021-05-04 10:00:00 51.4 56.0 36.2 51.4 51.4 2.6 5.3 2.7 300.0 32.4 0.00 0.0921500 57.2
2021-05-04 10:05:00 52.5 51.2 35.0 52.5 52.5 2.2 4.0 2.4 312.4 326.7 0.00 0.1732053 57.5
2021-05-04 10:10:00 52.6 53.3 36.1 52.6 52.6 5.3 7.4 3.9 87.7 74.2 0.00 0.2166048 57.7
2021-05-04 10:15:00 52.9 51.4 35.5 52.9 52.9 5.3 8.5 5.2 24.1 62.5 0.00 0.1962190 58.0
2021-05-04 10:20:00 52.1 52.7 35.3 52.1 52.1 3.8 6.9 3.6 100.8 56.6 0.00 0.1335052 58.2
2021-05-04 10:25:00 53.0 55.6 37.5 53.0 53.0 2.4 3.7 2.2 221.0 65.4 0.00 0.1811522 58.5
2021-05-04 10:30:00 53.0 53.6 36.6 53.0 53.0 0.8 4.0 2.3 133.9 137.8 0.00 0.1183659 58.7
2021-05-04 10:35:00 52.5 53.6 36.2 52.5 52.5 4.0 4.7 3.2 70.2 67.8 0.00 0.1205536 58.9
2021-05-04 10:40:00 52.7 55.0 37.0 52.7 52.7 4.0 4.9 2.7 326.7 357.0 0.00 0.1124383 59.1
2021-05-04 10:45:00 52.7 50.9 35.0 52.7 52.7 3.3 5.3 3.5 347.7 347.7 0.00 0.1071686 59.3
2021-05-04 10:50:00 53.0 53.7 36.7 53.0 53.0 1.9 5.3 2.7 149.3 68.4 0.00 0.1344540 59.4
2021-05-04 10:55:00 53.0 53.3 36.5 53.0 53.0 4.6 5.1 3.2 143.7 117.7 0.00 0.1873734 59.5
2021-05-04 11:00:00 53.8 55.0 38.0 53.8 53.8 5.5 5.6 3.9 179.2 112.5 0.00 0.2312098 59.6
2021-05-04 11:05:00 52.8 51.3 35.3 52.8 52.8 3.7 6.9 4.9 184.8 167.5 0.00 0.1678783 59.8
2021-05-04 11:10:00 53.9 52.1 36.7 53.9 53.9 0.0 3.5 1.4 101.7 229.6 0.00 0.1893472 59.9
2021-05-04 11:15:00 53.2 53.5 36.7 53.2 53.2 4.7 6.7 4.7 36.0 61.8 0.00 0.1348104 60.1
2021-05-04 11:20:00 53.0 52.9 36.3 53.0 53.0 4.0 6.2 4.7 95.7 76.0 0.00 0.1399545 60.3
2021-05-04 11:25:00 54.5 58.0 40.0 54.5 54.5 5.1 5.1 3.2 40.3 84.4 0.00 0.1912828 60.5
2021-05-04 11:30:00 56.2 53.5 39.6 56.2 56.2 4.6 5.6 3.9 300.7 45.3 0.00 0.3731698 60.6
2021-05-04 11:35:00 57.0 49.6 38.4 57.0 57.0 3.1 4.6 3.1 132.6 70.2 0.00 0.3547282 60.8
2021-05-04 11:40:00 57.7 45.8 37.0 57.7 57.7 3.1 3.7 2.1 37.3 27.9 0.00 0.2955518 61.1
2021-05-04 11:45:00 57.7 49.8 39.1 57.7 57.7 1.2 4.2 2.6 223.8 41.7 0.00 0.3749366 61.4
2021-05-04 11:50:00 56.9 52.9 39.9 56.9 56.9 4.4 6.7 4.1 128.7 97.3 0.00 0.2640260 61.9
2021-05-04 11:55:00 55.7 49.1 36.9 55.7 55.7 3.5 5.3 4.2 71.9 79.6 0.00 0.2244546 62.3
2021-05-04 12:00:00 55.8 50.8 37.9 55.8 55.8 2.8 5.1 3.0 315.0 3.7 0.00 0.1574963 62.8
2021-05-04 12:05:00 55.8 51.9 38.4 55.8 55.8 5.8 5.8 3.0 296.6 312.5 0.00 0.1449931 63.1
2021-05-04 12:10:00 54.8 50.2 36.6 54.8 54.8 2.1 6.5 3.9 346.0 318.2 0.00 0.1416541 63.4
2021-05-04 12:15:00 55.6 50.7 37.6 55.6 55.6 3.5 4.7 3.2 346.8 350.0 0.00 0.1321334 63.7
2021-05-04 12:20:00 54.7 54.6 38.7 54.7 54.7 1.3 6.5 3.1 317.0 305.2 0.00 0.1236205 63.8
2021-05-04 12:25:00 55.3 48.7 36.3 55.3 55.3 0.8 2.6 1.6 219.2 270.0 0.00 0.1111777 64.0
2021-05-04 12:30:00 55.9 51.5 38.3 55.9 55.9 4.6 4.6 1.6 215.4 157.0 0.00 0.1280403 64.1
2021-05-04 12:35:00 55.3 50.8 37.3 55.3 55.3 3.3 8.3 4.8 190.8 224.7 0.00 0.1366479 64.1
2021-05-04 12:40:00 54.9 48.6 35.9 54.9 54.9 2.1 4.7 3.2 8.0 313.3 0.00 0.1176839 64.2
2021-05-04 12:45:00 55.6 49.4 37.0 55.6 55.6 6.3 6.5 2.3 218.4 241.9 0.00 0.1116588 64.2
2021-05-04 12:50:00 55.2 51.6 37.7 55.2 55.2 0.8 6.3 2.8 228.5 270.7 0.00 0.1184292 64.2
2021-05-04 12:55:00 55.6 51.2 37.8 55.6 55.6 4.4 9.7 3.7 278.1 223.8 0.00 0.1362749 64.3
2021-05-04 13:00:00 55.1 48.7 36.1 55.1 55.1 2.6 6.3 4.2 312.8 274.1 0.00 0.1642356 64.3
2021-05-04 13:05:00 56.2 50.6 38.1 56.2 56.2 3.5 5.8 2.3 192.5 332.7 0.00 0.1748126 64.3
2021-05-04 13:10:00 55.9 51.7 38.4 55.9 55.9 4.0 6.9 5.0 266.0 267.0 0.00 0.1669432 64.3
2021-05-04 13:15:00 56.1 50.7 38.0 56.1 56.1 4.7 7.6 4.7 204.6 211.0 0.00 0.1626413 64.4
2021-05-04 13:20:00 56.3 48.3 37.0 56.3 56.3 4.6 5.3 2.9 165.2 221.8 0.00 0.1558037 64.5
2021-05-04 13:25:00 56.0 49.0 37.1 56.0 56.0 4.2 6.2 4.3 155.3 170.3 0.00 0.1544857 64.6
2021-05-04 13:30:00 56.8 47.4 37.0 56.8 56.8 3.7 6.7 4.1 224.1 216.8 0.00 0.2277631 64.7
2021-05-04 13:35:00 57.4 49.1 38.4 57.4 57.4 4.4 6.3 4.5 250.7 251.4 0.00 0.2567011 64.7
2021-05-04 13:40:00 58.5 48.0 38.9 58.5 58.5 4.7 5.6 3.1 163.9 176.3 0.00 0.3116420 64.9
2021-05-04 13:45:00 57.1 47.2 37.1 57.1 57.1 3.8 7.8 5.4 135.7 146.2 0.00 0.1689554 65.1
2021-05-04 13:50:00 56.7 48.9 37.7 56.7 56.7 3.3 6.2 4.3 180.2 146.6 0.00 0.1507119 65.3
2021-05-04 13:55:00 57.9 49.6 39.2 57.9 57.9 5.8 7.6 3.0 210.4 226.6 0.00 0.2703779 65.6
2021-05-04 14:00:00 57.9 45.6 37.1 57.9 57.9 2.8 8.0 4.8 172.4 226.7 0.00 0.2739816 65.7
2021-05-04 14:05:00 56.8 47.4 36.9 56.8 56.8 6.3 10.3 6.5 253.5 239.3 0.00 0.1594026 66.0
2021-05-04 14:10:00 57.5 50.7 39.3 57.5 57.5 6.2 6.2 3.1 254.1 298.5 0.00 0.1652453 66.2
2021-05-04 14:15:00 57.3 47.6 37.6 57.3 57.3 6.5 7.8 5.2 319.9 250.3 0.00 0.1646316 66.4
2021-05-04 14:20:00 57.8 47.0 37.7 57.8 57.8 3.1 6.0 4.1 22.9 342.7 0.00 0.1639421 66.6
2021-05-04 14:25:00 58.8 46.6 38.4 58.8 58.8 6.0 7.1 4.2 230.4 258.6 0.00 0.2166882 66.7
2021-05-04 14:30:00 58.4 49.0 39.3 58.4 58.4 6.3 11.2 7.1 230.3 210.7 0.00 0.2162811 66.8
2021-05-04 14:35:00 58.2 46.2 37.6 58.2 58.2 4.2 8.8 5.6 226.6 224.1 0.00 0.1695790 67.0
2021-05-04 14:40:00 58.6 46.6 38.2 58.6 58.6 6.0 8.0 6.4 251.9 215.9 0.00 0.1969387 67.2
2021-05-04 14:45:00 57.8 45.3 36.7 57.8 57.8 3.1 7.8 5.4 150.8 195.8 0.00 0.1838561 67.3
2021-05-04 14:50:00 59.8 43.0 37.2 59.8 59.8 7.4 9.7 3.3 212.3 199.7 0.00 0.3176099 67.5
2021-05-04 14:55:00 59.1 47.4 39.1 59.1 59.1 9.6 11.5 7.2 217.7 227.4 0.00 0.2555426 67.6
2021-05-04 15:00:00 59.3 46.3 38.7 59.3 59.3 5.8 10.1 6.3 189.6 220.2 0.00 0.1511274 67.9
2021-05-04 15:05:00 58.8 43.5 36.6 58.8 58.8 1.5 6.9 4.5 212.7 188.8 0.00 0.2417239 68.1
2021-05-04 15:10:00 60.4 42.3 37.4 60.4 60.4 9.6 11.5 4.8 241.6 232.3 0.00 0.2685480 68.4
2021-05-04 15:15:00 59.8 43.2 37.4 59.8 59.8 6.2 10.5 6.8 209.4 215.5 0.00 0.2383069 68.6
2021-05-04 15:20:00 59.2 44.8 37.7 59.2 59.2 5.6 8.3 6.6 152.2 172.1 0.00 0.2501019 68.9
2021-05-04 15:25:00 59.9 44.7 38.4 59.9 59.9 6.5 6.5 3.6 151.7 173.1 0.00 0.2441416 69.1
2021-05-04 15:30:00 60.2 42.7 37.5 60.2 60.2 7.1 12.1 7.5 287.4 235.4 0.00 0.2399808 69.4
2021-05-04 15:35:00 59.9 43.8 37.8 59.9 59.9 3.3 9.7 5.6 182.8 216.8 0.00 0.2360434 69.6
2021-05-04 15:40:00 60.1 45.2 38.8 60.1 60.1 8.0 10.8 6.6 215.2 217.9 0.00 0.2312540 69.8
2021-05-04 15:45:00 60.2 42.5 37.3 60.2 60.2 6.0 9.0 6.0 233.9 213.8 0.00 0.2267408 70.0
2021-05-04 15:50:00 60.5 43.5 38.2 60.5 60.5 4.4 7.4 5.2 223.4 211.4 0.00 0.2222799 70.1
2021-05-04 15:55:00 61.1 45.5 39.8 61.1 61.1 4.6 5.8 3.8 251.8 259.4 0.00 0.2177215 70.2
2021-05-04 16:00:00 62.5 41.1 38.5 62.5 62.5 8.5 13.1 5.3 229.0 235.0 0.00 0.2136774 70.3
2021-05-04 16:05:00 61.1 41.1 37.3 61.1 61.1 4.7 10.1 6.8 257.2 251.3 0.00 0.2093853 70.3
2021-05-04 16:10:00 61.1 42.7 38.2 61.1 61.1 9.2 9.2 4.5 175.0 201.1 0.00 0.2043190 70.3
2021-05-04 16:15:00 61.0 42.0 37.7 61.0 61.0 6.3 11.0 5.9 198.2 195.3 0.00 0.1999926 70.3
2021-05-04 16:20:00 61.2 40.9 37.3 61.2 61.2 4.4 11.3 8.1 301.8 261.6 0.00 0.1957844 70.3
2021-05-04 16:25:00 62.2 40.3 37.8 62.2 62.2 6.9 9.0 6.2 241.4 263.1 0.00 0.1917071 70.3
2021-05-04 16:30:00 61.8 42.5 38.7 61.8 61.8 8.1 12.8 8.8 250.5 224.9 0.00 0.1862399 70.3
2021-05-04 16:35:00 61.7 40.2 37.2 61.7 61.7 7.2 11.5 8.1 292.2 265.2 0.00 0.1809234 70.4
2021-05-04 16:40:00 61.7 41.4 38.0 61.7 61.7 4.6 7.2 5.2 232.8 236.2 0.00 0.1756887 70.4
2021-05-04 16:45:00 61.6 43.4 39.1 61.6 61.6 5.8 10.1 6.9 150.4 195.9 0.00 0.1709457 70.5
2021-05-04 16:50:00 61.3 41.9 38.0 61.3 61.3 7.2 11.0 8.0 184.8 172.5 0.00 0.1655912 70.6
2021-05-04 16:55:00 62.0 41.9 38.6 62.0 62.0 7.6 9.6 6.2 172.9 177.2 0.00 0.1608296 70.7
2021-05-04 17:00:00 62.3 42.1 39.0 62.3 62.3 7.6 10.3 7.4 217.7 180.0 0.00 0.1555435 70.8
2021-05-04 17:05:00 61.8 42.4 38.6 61.8 61.8 3.5 8.0 5.1 182.6 179.1 0.00 0.1494972 70.8
2021-05-04 17:10:00 61.5 43.4 39.1 61.5 61.5 5.6 12.1 7.3 145.7 172.7 0.00 0.1446453 70.9
2021-05-04 17:15:00 61.7 42.5 38.7 61.7 61.7 5.8 11.0 6.3 166.6 156.2 0.00 0.1390462 70.9
2021-05-04 17:20:00 62.0 41.1 38.0 62.0 62.0 6.2 10.6 7.8 199.2 193.2 0.00 0.1348210 71.0
2021-05-04 17:25:00 62.7 41.4 38.9 62.7 62.7 5.3 7.1 4.8 183.6 200.9 0.00 0.1293292 71.0
2021-05-04 17:30:00 62.7 42.3 39.5 62.7 62.7 4.2 5.8 4.1 159.7 173.0 0.00 0.1233840 71.0
2021-05-04 17:35:00 62.6 40.8 38.4 62.6 62.6 9.2 11.9 7.0 183.8 168.0 0.00 0.1183215 71.0
2021-05-04 17:40:00 62.2 41.6 38.6 62.2 62.2 4.9 9.2 6.2 139.4 156.2 0.00 0.1127066 71.0
2021-05-04 17:45:00 62.7 42.1 39.3 62.7 62.7 6.0 7.6 5.1 165.8 165.7 0.00 0.1073875 70.9
2021-05-04 17:50:00 62.3 41.0 38.3 62.3 62.3 3.5 8.8 6.5 160.8 178.2 0.00 0.1024879 70.9
2021-05-04 17:55:00 62.3 42.7 39.3 62.3 62.3 6.5 8.7 5.4 193.0 148.4 0.00 0.0974829 70.8
2021-05-04 18:00:00 62.4 40.7 38.2 62.4 62.4 5.6 8.3 6.1 143.9 164.5 0.00 0.0926638 70.8
2021-05-04 18:05:00 62.5 42.3 39.3 62.5 62.5 6.3 8.3 6.9 136.7 148.3 0.00 0.0878209 70.7
2021-05-04 18:10:00 62.6 41.3 38.7 62.6 62.6 5.8 9.0 6.4 139.1 136.2 0.00 0.0829705 70.6
2021-05-04 18:15:00 62.2 41.4 38.5 62.2 62.2 7.1 12.4 7.7 127.9 134.5 0.00 0.0779591 70.5
2021-05-04 18:20:00 62.2 41.7 38.6 62.2 62.2 7.1 9.0 7.1 135.5 138.7 0.00 0.0730749 70.3
2021-05-04 18:25:00 62.5 41.5 38.8 62.5 62.5 8.3 8.3 6.6 136.7 134.1 0.00 0.0682635 70.2
2021-05-04 18:30:00 62.2 41.4 38.4 62.2 62.2 7.4 9.4 7.9 115.2 133.5 0.00 0.0634626 70.0
2021-05-04 18:35:00 62.3 41.3 38.5 62.3 62.3 7.1 9.2 7.1 153.2 128.7 0.00 0.0588012 69.9
2021-05-04 18:40:00 62.2 42.2 38.9 62.2 62.2 5.5 8.8 7.0 127.7 138.0 0.00 0.0540658 69.7
2021-05-04 18:45:00 62.3 41.6 38.7 62.3 62.3 7.4 8.7 6.4 150.8 131.0 0.00 0.0496081 69.5
2021-05-04 18:50:00 62.3 41.9 38.9 62.3 62.3 5.8 8.3 5.8 132.9 153.0 0.00 0.0450390 69.4
2021-05-04 18:55:00 62.2 41.8 38.7 62.2 62.2 8.0 9.6 7.6 152.5 135.3 0.00 0.0406651 69.2
2021-05-04 19:00:00 62.0 42.3 38.8 62.0 62.0 6.9 9.7 7.6 115.8 146.1 0.00 0.0362523 69.0
2021-05-04 19:05:00 61.8 42.9 39.0 61.8 61.8 6.2 9.9 7.5 160.9 137.1 0.00 0.0320678 68.8
2021-05-04 19:10:00 61.8 42.9 39.0 61.8 61.8 7.4 10.3 6.9 113.6 145.8 0.00 0.0278012 68.6
2021-05-04 19:15:00 61.7 42.9 39.0 61.7 61.7 6.7 7.6 6.1 142.2 139.5 0.00 0.0235995 68.4
2021-05-04 19:20:00 61.7 42.3 38.6 61.7 61.7 6.5 10.8 8.0 141.8 132.0 0.00 0.0195615 68.3
2021-05-04 19:25:00 61.4 43.1 38.8 61.4 61.4 8.5 8.8 6.9 140.8 134.4 0.00 0.0153246 68.0
2021-05-04 19:30:00 61.4 43.0 38.7 61.4 61.4 6.9 8.5 6.7 135.2 135.0 0.00 0.0112643 67.8
2021-05-04 19:35:00 61.1 43.9 39.0 61.1 61.1 5.1 6.3 5.3 144.5 135.3 0.00 0.0064494 67.6
2021-05-04 19:40:00 60.6 44.6 38.9 60.6 60.6 5.5 7.1 5.2 144.4 141.6 0.00 0.0024092 67.4
2021-05-04 19:45:00 60.3 45.7 39.2 60.3 60.3 5.8 6.3 4.9 140.3 136.5 0.00 0.0003456 67.2
2021-05-04 19:50:00 59.8 46.6 39.3 59.8 59.8 5.8 6.2 4.7 141.3 136.7 0.00 0.0000000 67.0
2021-05-04 19:55:00 59.6 46.8 39.2 59.6 59.6 6.3 6.9 5.4 133.2 137.1 0.00 0.0000000 66.8
2021-05-04 20:00:00 59.3 48.0 39.6 59.3 59.3 4.7 6.2 4.8 127.1 138.1 0.00 0.0000000 66.6
2021-05-04 20:05:00 58.9 48.8 39.7 58.9 58.9 4.7 6.5 5.1 137.5 135.8 0.00 0.0000000 66.4
2021-05-04 20:10:00 58.8 49.2 39.8 58.8 58.8 5.5 6.9 5.1 142.5 138.5 0.00 0.0000000 66.2
2021-05-04 20:15:00 58.7 50.0 40.1 58.7 58.7 6.5 6.5 4.9 124.4 130.6 0.00 0.0000000 66.0
2021-05-04 20:20:00 58.3 50.8 40.2 58.3 58.3 4.9 6.3 5.2 147.8 135.8 0.00 0.0000000 65.8
2021-05-04 20:25:00 58.1 51.3 40.2 58.1 58.1 6.2 6.2 5.1 151.9 142.9 0.00 0.0000000 65.6
2021-05-04 20:30:00 57.8 52.0 40.3 57.8 57.8 4.9 6.3 5.1 146.5 149.8 0.00 0.0000000 65.4
2021-05-04 20:35:00 57.8 51.8 40.2 57.8 57.8 5.8 6.7 5.5 161.9 149.4 0.00 0.0000000 65.2
2021-05-04 20:40:00 57.8 51.9 40.3 57.8 57.8 4.9 6.9 5.6 163.5 149.2 0.00 0.0000000 65.1
2021-05-04 20:45:00 57.8 51.7 40.2 57.8 57.8 4.9 7.2 5.3 149.8 145.7 0.00 0.0000000 64.9
2021-05-04 20:50:00 57.8 51.2 39.9 57.8 57.8 5.6 6.5 5.5 148.4 141.9 0.00 0.0000000 64.7
2021-05-04 20:55:00 57.7 51.4 39.9 57.7 57.7 4.7 7.2 5.2 145.1 143.6 0.00 0.0000000 64.5
2021-05-04 21:00:00 57.4 52.5 40.1 57.4 57.4 6.0 6.0 4.5 139.0 135.9 0.00 0.0000000 64.4
2021-05-04 21:05:00 57.1 53.3 40.3 57.1 57.1 4.6 6.9 5.2 141.0 134.5 0.00 0.0000000 64.2
2021-05-04 21:10:00 57.0 53.3 40.2 57.0 57.0 5.1 6.5 5.2 146.3 136.5 0.00 0.0000000 64.0
2021-05-04 21:15:00 56.9 53.2 40.0 56.9 56.9 5.1 6.5 5.4 125.1 126.6 0.00 0.0000000 63.9
2021-05-04 21:20:00 56.9 53.2 40.0 56.9 56.9 5.3 6.3 5.3 128.7 129.5 0.00 0.0000000 63.7
2021-05-04 21:25:00 56.5 54.8 40.4 56.5 56.5 4.2 7.1 5.0 115.1 121.6 0.00 0.0000000 63.6
2021-05-04 21:30:00 56.4 54.2 40.1 56.4 56.4 4.7 6.9 5.3 115.8 124.2 0.00 0.0000000 63.4
2021-05-04 21:35:00 55.9 56.0 40.4 55.9 55.9 3.1 6.0 4.2 99.2 112.3 0.00 0.0000000 63.2
2021-05-04 21:40:00 55.1 58.1 40.7 55.1 55.1 3.5 5.1 3.8 101.6 106.5 0.00 0.0000000 63.1
2021-05-04 21:45:00 54.8 58.9 40.7 54.8 54.8 3.3 5.3 4.2 113.2 99.1 0.00 0.0000000 62.9
2021-05-04 21:50:00 54.8 59.3 40.8 54.8 54.8 4.0 5.3 4.0 116.6 106.5 0.00 0.0000000 62.8
2021-05-04 21:55:00 54.9 58.7 40.7 54.9 54.9 4.7 5.5 4.4 126.6 115.9 0.00 0.0000000 62.7
2021-05-04 22:00:00 55.3 56.8 40.2 55.3 55.3 5.3 6.3 5.3 115.0 129.6 0.00 0.0000000 62.5
2021-05-04 22:05:00 55.4 57.0 40.4 55.4 55.4 5.1 6.5 5.3 119.1 127.8 0.00 0.0000000 62.3
2021-05-04 22:10:00 55.1 57.9 40.5 55.1 55.1 5.6 7.1 5.3 112.2 124.1 0.00 0.0000000 62.2
2021-05-04 22:15:00 55.1 57.1 40.2 55.1 55.1 6.7 9.2 5.4 142.2 122.8 0.00 0.0000000 62.1
2021-05-04 22:20:00 54.9 57.9 40.3 54.9 54.9 5.1 6.5 4.9 137.1 124.4 0.00 0.0000000 61.9
2021-05-04 22:25:00 54.5 58.5 40.3 54.5 54.5 4.4 5.5 4.0 102.8 113.5 0.00 0.0000000 61.8
2021-05-04 22:30:00 54.1 60.0 40.5 54.1 54.1 2.6 4.0 3.3 118.0 116.8 0.00 0.0000000 61.7
2021-05-04 22:35:00 54.2 59.4 40.3 54.2 54.2 3.8 4.4 3.3 145.8 135.2 0.00 0.0000000 61.6
2021-05-04 22:40:00 54.1 59.8 40.4 54.1 54.1 3.1 4.2 3.2 127.0 136.5 0.00 0.0000000 61.4
2021-05-04 22:45:00 53.9 60.2 40.5 53.9 53.9 3.7 4.7 3.6 116.9 125.3 0.00 0.0000000 61.3
2021-05-04 22:50:00 53.9 60.0 40.3 53.9 53.9 5.1 5.1 4.2 130.4 123.1 0.00 0.0000000 61.2
2021-05-04 22:55:00 53.9 60.2 40.4 53.9 53.9 4.6 5.3 4.2 129.5 136.4 0.00 0.0000000 61.0
2021-05-04 23:00:00 53.9 60.5 40.6 53.9 53.9 4.2 5.6 4.5 125.1 137.2 0.00 0.0000000 60.9
2021-05-04 23:05:00 53.9 60.9 40.7 53.9 53.9 4.0 5.3 4.5 146.3 139.2 0.00 0.0000000 60.8
2021-05-04 23:10:00 54.1 60.4 40.7 54.1 54.1 4.9 6.2 4.9 130.3 139.7 0.00 0.0000000 60.7
2021-05-04 23:15:00 54.0 60.8 40.8 54.0 54.0 4.0 5.3 4.6 123.6 138.7 0.00 0.0000000 60.5
2021-05-04 23:20:00 54.1 60.6 40.7 54.1 54.1 3.3 5.3 4.1 165.3 141.6 0.00 0.0000000 60.5
2021-05-04 23:25:00 54.4 59.6 40.6 54.4 54.4 6.7 6.7 4.4 165.6 161.7 0.00 0.0000000 60.3
2021-05-04 23:30:00 54.2 61.2 41.1 54.2 54.2 3.7 6.5 4.0 167.3 163.8 0.00 0.0000000 60.2
2021-05-04 23:35:00 54.6 60.6 41.2 54.6 54.6 6.3 6.7 4.7 164.3 165.5 0.00 0.0000000 60.1
2021-05-04 23:40:00 55.9 57.0 40.8 55.9 55.9 7.1 10.1 7.8 172.3 176.7 0.00 0.0000000 60.0
2021-05-04 23:45:00 56.2 56.2 40.7 56.2 56.2 8.3 11.7 9.1 177.2 182.9 0.00 0.0000000 59.9
2021-05-04 23:50:00 55.7 57.6 40.9 55.7 55.7 4.9 8.0 6.4 168.2 168.7 0.00 0.0000000 59.8
2021-05-04 23:55:00 55.9 56.8 40.8 55.9 55.9 12.2 13.1 7.8 189.5 174.0 0.00 0.0000000 59.7
2021-05-05 00:00:00 55.9 56.8 40.8 55.9 55.9 8.0 12.6 8.9 139.2 171.0 0.00 0.0000000 59.6

Data is courtesy of the NM Climate Center. DO NOT USE IN LEGAL PROCEEDINGS.